createdAt,value
2019-03-19T00:00:57.978Z,0.20
2019-03-19T00:03:26.539Z,0.10
2019-03-19T00:05:54.189Z,0.20
2019-03-19T00:08:21.819Z,0.20
2019-03-19T00:10:49.471Z,0.20
2019-03-19T00:13:17.099Z,0.20
2019-03-19T00:15:44.738Z,0.20
2019-03-19T00:18:12.378Z,0.10
2019-03-19T00:20:40.018Z,0.10
2019-03-19T00:23:07.647Z,0.10
2019-03-19T00:25:35.290Z,0.10
2019-03-19T00:28:02.918Z,0.20
2019-03-19T00:30:30.570Z,0.10
2019-03-19T00:32:58.361Z,0.10
2019-03-19T00:35:26.004Z,0.20
2019-03-19T00:37:53.627Z,0.20
2019-03-19T00:40:21.284Z,0.30
2019-03-19T00:42:50.874Z,0.30
2019-03-19T00:45:18.886Z,0.30
2019-03-19T00:47:46.506Z,0.40
2019-03-19T00:50:14.606Z,0.40
2019-03-19T00:52:49.510Z,0.50
2019-03-19T00:55:17.147Z,0.40
2019-03-19T00:57:44.788Z,0.40
2019-03-19T01:00:16.050Z,0.40
2019-03-19T01:02:44.668Z,0.40
2019-03-19T01:05:12.360Z,0.50
2019-03-19T01:07:40.002Z,0.50
2019-03-19T01:10:09.172Z,0.50
2019-03-19T01:12:38.805Z,0.60
2019-03-19T01:15:07.959Z,0.50
2019-03-19T01:17:35.598Z,0.60
2019-03-19T01:20:04.298Z,0.50
2019-03-19T01:22:31.942Z,0.60
2019-03-19T01:24:59.574Z,0.60
2019-03-19T01:27:27.218Z,0.70
2019-03-19T01:29:54.848Z,0.70
2019-03-19T01:32:25.513Z,0.70
2019-03-19T01:34:53.142Z,0.70
2019-03-19T01:37:20.777Z,0.70
2019-03-19T01:39:48.411Z,0.70
2019-03-19T01:42:16.067Z,0.70
2019-03-19T01:44:43.686Z,0.70
2019-03-19T01:47:11.384Z,0.70
2019-03-19T01:49:39.038Z,0.70
2019-03-19T01:52:06.678Z,0.70
2019-03-19T01:54:34.326Z,0.70
2019-03-19T01:57:01.950Z,0.70
2019-03-19T01:59:29.590Z,0.70
2019-03-19T02:01:57.214Z,0.60
2019-03-19T02:04:24.858Z,0.60
2019-03-19T02:06:52.536Z,0.60
2019-03-19T02:09:20.211Z,0.50
2019-03-19T02:11:47.838Z,0.50
2019-03-19T02:14:15.482Z,0.50
2019-03-19T02:16:43.115Z,0.50
2019-03-19T02:19:10.782Z,0.40
2019-03-19T02:21:38.458Z,0.40
2019-03-19T02:24:06.106Z,0.40
2019-03-19T02:26:33.739Z,0.30
2019-03-19T02:29:01.379Z,0.20
2019-03-19T02:31:29.010Z,0.20
2019-03-19T02:33:56.661Z,0.20
2019-03-19T02:36:24.430Z,0.20
2019-03-19T02:38:52.079Z,0.10
2019-03-19T02:41:19.714Z,0.10
2019-03-19T02:43:48.315Z,0.10
2019-03-19T02:46:15.946Z,0.10
2019-03-19T02:48:43.584Z,0.10
2019-03-19T02:51:11.212Z,0.10
2019-03-19T02:53:38.849Z,0.10
2019-03-19T02:56:06.512Z,0.10
2019-03-19T02:58:34.164Z,0.10
2019-03-19T03:01:01.790Z,0.10
2019-03-19T03:03:29.416Z,0.10
2019-03-19T03:05:57.061Z,0.00
2019-03-19T03:08:24.692Z,-0.10
2019-03-19T03:10:52.332Z,-0.10
2019-03-19T03:13:19.972Z,-0.20
2019-03-19T03:18:14.973Z,-0.20
2019-03-19T03:20:42.614Z,-0.20
2019-03-19T03:23:10.257Z,-0.20
2019-03-19T03:25:37.900Z,-0.30
2019-03-19T03:28:05.641Z,-0.30
2019-03-19T03:30:33.340Z,-0.30
2019-03-19T03:33:00.967Z,-0.30
2019-03-19T03:35:28.624Z,-0.30
2019-03-19T03:37:56.278Z,-0.30
2019-03-19T03:40:23.951Z,-0.30
2019-03-19T03:42:53.618Z,-0.30
2019-03-19T03:45:21.284Z,-0.30
2019-03-19T03:47:49.015Z,-0.30
2019-03-19T03:50:19.923Z,-0.30
2019-03-19T03:52:47.563Z,-0.30
2019-03-19T03:55:15.776Z,-0.30
2019-03-19T03:57:43.406Z,-0.30
2019-03-19T04:00:12.592Z,-0.30
2019-03-19T04:02:44.798Z,-0.40
2019-03-19T04:05:12.796Z,-0.50
2019-03-19T04:07:40.426Z,-0.50
2019-03-19T04:10:09.604Z,-0.50
2019-03-19T04:12:37.246Z,-0.50
2019-03-19T04:15:05.745Z,-0.50
2019-03-19T04:17:33.391Z,-0.50
2019-03-19T04:20:01.031Z,-0.50
2019-03-19T04:22:28.675Z,-0.50
2019-03-19T04:24:56.319Z,-0.50
2019-03-19T04:27:23.964Z,-0.60
2019-03-19T04:29:51.599Z,-0.60
2019-03-19T04:32:19.243Z,-0.60
2019-03-19T04:34:46.870Z,-0.70
2019-03-19T04:39:41.879Z,-0.80
2019-03-19T04:42:10.519Z,-0.80
2019-03-19T04:44:38.163Z,-0.80
2019-03-19T04:47:05.810Z,-0.80
2019-03-19T04:49:33.434Z,-0.90
2019-03-19T04:52:01.075Z,-0.90
2019-03-19T04:54:28.707Z,-0.90
2019-03-19T04:56:56.350Z,-0.90
2019-03-19T04:59:24.034Z,-0.90
2019-03-19T05:01:51.742Z,-0.90
2019-03-19T05:04:19.431Z,-0.90
2019-03-19T05:06:47.073Z,-0.90
2019-03-19T05:09:14.718Z,-1.00
2019-03-19T05:11:42.354Z,-1.00
2019-03-19T05:14:09.998Z,-1.00
2019-03-19T05:16:37.627Z,-1.00
2019-03-19T05:19:05.272Z,-1.00
2019-03-19T05:21:32.911Z,-1.00
2019-03-19T05:24:00.555Z,-1.10
2019-03-19T05:26:28.190Z,-1.10
2019-03-19T05:28:55.834Z,-1.10
2019-03-19T05:31:23.469Z,-1.10
2019-03-19T05:33:51.111Z,-1.10
2019-03-19T05:36:18.749Z,-1.00
2019-03-19T05:38:46.443Z,-1.00
2019-03-19T05:41:16.502Z,-1.00
2019-03-19T05:43:43.486Z,-1.00
2019-03-19T05:46:11.122Z,-1.10
2019-03-19T05:48:38.775Z,-1.10
2019-03-19T05:51:06.406Z,-1.20
2019-03-19T05:53:34.055Z,-1.20
2019-03-19T05:56:01.695Z,-1.10
2019-03-19T05:58:29.338Z,-1.10
2019-03-19T06:00:56.971Z,-1.10
2019-03-19T06:03:24.610Z,-1.10
2019-03-19T06:05:52.255Z,-1.20
2019-03-19T06:08:19.897Z,-1.20
2019-03-19T06:10:47.529Z,-1.10
2019-03-19T06:13:15.260Z,-1.00
2019-03-19T06:15:42.899Z,-0.90
2019-03-19T06:18:10.551Z,-0.90
2019-03-19T06:20:38.186Z,-0.70
2019-03-19T06:23:05.834Z,-0.60
2019-03-19T06:25:33.463Z,-0.60
2019-03-19T06:28:01.130Z,-0.50
2019-03-19T06:30:28.837Z,-0.60
2019-03-19T06:32:56.464Z,-0.50
2019-03-19T06:35:24.112Z,-0.50
2019-03-19T06:37:51.747Z,-0.40
2019-03-19T06:40:20.931Z,-0.30
2019-03-19T06:42:48.569Z,-0.30
2019-03-19T06:45:16.678Z,-0.30
2019-03-19T06:47:44.318Z,-0.20
2019-03-19T06:50:13.126Z,-0.10
2019-03-19T06:52:40.766Z,-0.10
2019-03-19T06:55:14.883Z,0.10
2019-03-19T06:57:42.511Z,0.10
2019-03-19T07:00:11.697Z,0.20
2019-03-19T07:02:40.308Z,0.30
2019-03-19T07:05:08.718Z,0.40
2019-03-19T07:07:36.351Z,0.40
2019-03-19T07:10:05.662Z,0.40
2019-03-19T07:12:40.267Z,0.60
2019-03-19T07:15:09.446Z,0.70
2019-03-19T07:17:37.071Z,1.00
2019-03-19T07:20:06.578Z,1.00
2019-03-19T07:22:34.202Z,1.10
2019-03-19T07:25:01.832Z,1.20
2019-03-19T07:27:29.470Z,1.50
2019-03-19T07:29:57.099Z,1.80
2019-03-19T07:32:25.685Z,2.00
2019-03-19T07:34:53.370Z,2.20
2019-03-19T07:37:21.029Z,2.50
2019-03-19T07:42:16.087Z,2.50
2019-03-19T07:44:43.715Z,2.50
2019-03-19T07:47:11.354Z,2.60
2019-03-19T07:49:38.990Z,2.70
2019-03-19T07:52:06.633Z,2.60
2019-03-19T07:54:34.263Z,2.60
2019-03-19T07:57:01.910Z,2.70
2019-03-19T08:01:56.907Z,3.00
2019-03-19T08:04:24.531Z,3.10
2019-03-19T08:06:52.170Z,3.40
2019-03-19T08:09:19.845Z,3.70
2019-03-19T08:11:47.569Z,4.00
2019-03-19T08:14:15.226Z,3.70
2019-03-19T08:16:42.874Z,3.70
2019-03-19T08:21:37.866Z,4.50
2019-03-19T08:26:32.856Z,5.10
2019-03-19T08:29:00.486Z,5.20
2019-03-19T08:31:28.126Z,5.50
2019-03-19T08:33:56.674Z,5.70
2019-03-19T08:36:24.317Z,5.80
2019-03-19T08:38:51.937Z,5.90
2019-03-19T08:41:19.582Z,6.00
2019-03-19T08:43:47.215Z,6.30
2019-03-19T08:46:14.858Z,6.20
2019-03-19T08:48:42.481Z,6.20
2019-03-19T08:51:10.139Z,6.60
2019-03-19T08:53:37.766Z,6.90
2019-03-19T08:58:32.769Z,7.10
2019-03-19T09:01:00.390Z,7.30
2019-03-19T09:03:28.034Z,7.40
2019-03-19T09:05:55.658Z,7.70
2019-03-19T09:08:23.298Z,7.60
2019-03-19T09:10:50.930Z,7.90
2019-03-19T09:15:45.926Z,8.20
2019-03-19T09:18:15.905Z,8.60
2019-03-19T09:20:42.945Z,8.20
2019-03-19T09:23:10.585Z,8.40
2019-03-19T09:25:38.206Z,8.90
2019-03-19T09:28:05.916Z,9.00
2019-03-19T09:30:33.542Z,8.60
2019-03-19T09:33:01.271Z,8.40
2019-03-19T09:35:28.914Z,8.20
2019-03-19T09:37:58.779Z,8.30
2019-03-19T09:40:25.919Z,8.00
2019-03-19T09:43:03.712Z,8.00
2019-03-19T09:45:31.335Z,8.10
2019-03-19T09:47:58.966Z,8.10
2019-03-19T09:50:26.986Z,8.00
2019-03-19T09:52:55.581Z,7.80
2019-03-19T09:55:23.238Z,7.90
2019-03-19T09:57:50.930Z,8.10
2019-03-19T10:00:19.142Z,8.10
2019-03-19T10:02:48.771Z,7.80
2019-03-19T10:05:16.412Z,7.50
2019-03-19T10:07:44.099Z,7.50
2019-03-19T10:10:13.046Z,8.00
2019-03-19T10:12:43.726Z,8.20
2019-03-19T10:15:11.934Z,8.30
2019-03-19T10:20:08.798Z,9.70
2019-03-19T10:22:36.434Z,9.40
2019-03-19T10:25:05.852Z,9.10
2019-03-19T10:27:33.482Z,9.10
2019-03-19T10:30:01.113Z,9.00
2019-03-19T10:32:28.759Z,8.90
2019-03-19T10:34:56.407Z,9.00
2019-03-19T10:37:24.038Z,9.50
2019-03-19T10:39:51.683Z,10.20
2019-03-19T10:42:21.296Z,10.00
2019-03-19T10:49:43.746Z,12.00
2019-03-19T10:52:11.385Z,12.20
2019-03-19T10:54:39.038Z,11.80
2019-03-19T11:02:06.374Z,13.30
2019-03-19T11:04:34.089Z,13.40
2019-03-19T11:09:29.094Z,13.90
2019-03-19T11:14:24.098Z,14.30
2019-03-19T11:16:51.731Z,14.70
2019-03-19T11:19:19.373Z,14.40
2019-03-19T11:21:47.008Z,13.00
2019-03-19T11:24:15.630Z,12.60
2019-03-19T11:29:10.630Z,10.90
2019-03-19T11:31:38.266Z,10.90
2019-03-19T11:34:12.014Z,11.50
2019-03-19T11:36:39.657Z,11.10
2019-03-19T11:39:07.958Z,11.20
2019-03-19T11:41:35.609Z,10.90
2019-03-19T11:46:53.580Z,11.10
2019-03-19T11:49:21.182Z,11.20
2019-03-19T11:51:48.835Z,11.10
2019-03-19T11:54:16.462Z,11.10
2019-03-19T11:56:44.110Z,11.00
2019-03-19T11:59:11.745Z,11.90
2019-03-19T12:01:39.386Z,13.40
2019-03-19T12:04:08.938Z,11.80
2019-03-19T12:06:36.578Z,12.30
2019-03-19T12:09:05.578Z,12.80
2019-03-19T12:11:33.222Z,12.80
2019-03-19T12:14:00.850Z,11.90
2019-03-19T12:16:28.499Z,10.80
2019-03-19T12:18:56.158Z,10.20
2019-03-19T12:21:23.798Z,11.20
2019-03-19T12:23:54.112Z,11.90
2019-03-19T12:26:21.750Z,12.20
2019-03-19T12:28:49.387Z,12.30
2019-03-19T12:33:47.322Z,16.20
2019-03-19T12:38:42.330Z,13.60
2019-03-19T12:41:10.013Z,12.90
2019-03-19T12:43:48.721Z,12.20
2019-03-19T12:46:16.382Z,12.40
2019-03-19T12:51:11.390Z,19.00
2019-03-19T12:56:08.371Z,20.60
2019-03-19T12:58:36.011Z,19.30
2019-03-19T13:01:03.709Z,18.20
2019-03-19T13:03:31.371Z,16.60
2019-03-19T13:08:32.266Z,18.30
2019-03-19T13:10:59.907Z,18.40
2019-03-19T13:13:27.554Z,17.20
2019-03-19T13:15:55.187Z,16.00
2019-03-19T13:18:22.839Z,14.80
2019-03-19T13:23:28.123Z,13.50
2019-03-19T13:25:56.771Z,12.40
2019-03-19T13:28:24.745Z,12.10
2019-03-19T13:30:52.400Z,14.70
2019-03-19T13:33:21.024Z,15.90
2019-03-19T13:35:48.727Z,14.50
2019-03-19T13:38:16.378Z,11.90
2019-03-19T13:40:44.017Z,13.00
2019-03-19T13:43:13.620Z,13.10
2019-03-19T13:45:41.254Z,12.80
2019-03-19T13:48:08.906Z,12.70
2019-03-19T13:50:36.559Z,12.10
2019-03-19T13:53:19.614Z,11.40
2019-03-19T13:55:47.242Z,10.90
2019-03-19T13:58:14.886Z,10.40
2019-03-19T14:03:14.870Z,11.00
2019-03-19T14:05:42.508Z,10.80
2019-03-19T14:10:37.510Z,10.40
2019-03-19T14:13:06.196Z,10.20
2019-03-19T14:18:01.195Z,10.10
2019-03-19T14:22:56.210Z,9.70
2019-03-19T14:25:43.210Z,10.00
2019-03-19T14:28:10.852Z,9.70
2019-03-19T14:30:38.478Z,9.70
2019-03-19T14:33:16.093Z,9.90
2019-03-19T14:35:43.710Z,9.70
2019-03-19T14:38:11.358Z,9.50
2019-03-19T14:40:39.059Z,9.50
2019-03-19T14:43:12.570Z,9.80
2019-03-19T14:45:40.223Z,10.70
2019-03-19T14:48:07.888Z,10.90
2019-03-19T14:53:06.909Z,13.00
2019-03-19T14:55:34.623Z,12.90
2019-03-19T14:58:02.283Z,13.80
2019-03-19T15:00:29.922Z,14.00
2019-03-19T15:05:26.855Z,13.00
2019-03-19T15:10:22.360Z,11.90
2019-03-19T15:12:55.770Z,12.20
2019-03-19T15:15:23.422Z,13.40
2019-03-19T15:17:51.055Z,13.70
2019-03-19T15:20:19.374Z,13.70
2019-03-19T15:22:53.138Z,14.40
2019-03-19T15:25:20.787Z,14.80
2019-03-19T15:27:48.494Z,15.50
2019-03-19T15:30:17.682Z,14.70
2019-03-19T15:32:54.267Z,15.20
2019-03-19T15:35:21.931Z,14.70
2019-03-19T15:37:49.563Z,14.00
2019-03-19T15:40:17.679Z,13.50
2019-03-19T15:42:45.331Z,12.80
2019-03-19T15:45:17.462Z,12.40
2019-03-19T15:47:45.090Z,11.80
2019-03-19T15:50:14.270Z,11.50
2019-03-19T15:52:41.912Z,11.40
2019-03-19T15:55:09.846Z,11.50
2019-03-19T15:57:37.478Z,11.60
2019-03-19T16:00:12.387Z,12.70
2019-03-19T16:02:40.017Z,12.10
2019-03-19T16:05:08.838Z,11.70
2019-03-19T16:07:36.461Z,11.30
2019-03-19T16:10:05.455Z,11.70
2019-03-19T16:12:38.979Z,12.70
2019-03-19T16:15:11.298Z,13.20
2019-03-19T16:20:07.848Z,12.60
2019-03-19T16:22:35.503Z,12.30
2019-03-19T16:25:03.204Z,11.90
2019-03-19T16:27:30.915Z,11.10
2019-03-19T16:29:58.546Z,10.50
2019-03-19T16:32:27.121Z,10.40
2019-03-19T16:34:54.752Z,10.00
2019-03-19T16:37:22.395Z,9.90
2019-03-19T16:39:50.022Z,9.90
2019-03-19T16:44:45.050Z,9.40
2019-03-19T16:47:12.691Z,8.90
2019-03-19T16:52:08.620Z,8.50
2019-03-19T16:54:36.250Z,8.40
2019-03-19T16:57:03.958Z,8.20
2019-03-19T16:59:31.583Z,7.90
2019-03-19T17:02:01.887Z,7.90
2019-03-19T17:04:28.583Z,7.90
2019-03-19T17:06:56.228Z,7.70
2019-03-19T17:09:23.874Z,7.60
2019-03-19T17:11:51.520Z,7.60
2019-03-19T17:14:19.979Z,7.50
2019-03-19T17:16:47.624Z,7.40
2019-03-19T17:19:15.257Z,7.20
2019-03-19T17:21:42.894Z,7.00
2019-03-19T17:24:10.531Z,6.70
2019-03-19T17:26:38.179Z,6.80
2019-03-19T17:29:05.806Z,6.70
2019-03-19T17:31:33.459Z,6.70
2019-03-19T17:36:28.455Z,6.50
2019-03-19T17:38:56.094Z,6.40
2019-03-19T17:41:23.726Z,6.20
2019-03-19T17:46:18.727Z,6.00
2019-03-19T17:48:46.394Z,5.80
2019-03-19T17:51:14.394Z,5.70
2019-03-19T17:56:10.070Z,5.40
2019-03-19T17:58:37.817Z,5.30
2019-03-19T18:01:05.442Z,5.30
2019-03-19T18:03:33.082Z,5.20
2019-03-19T18:06:00.731Z,5.10
2019-03-19T18:08:28.379Z,4.90
2019-03-19T18:10:56.023Z,4.80
2019-03-19T18:13:23.667Z,4.70
2019-03-19T18:15:51.298Z,4.90
2019-03-19T18:18:18.947Z,4.90
2019-03-19T18:20:46.571Z,5.00
2019-03-19T18:23:15.168Z,4.90
2019-03-19T18:25:42.796Z,4.80
2019-03-19T18:28:10.434Z,4.70
2019-03-19T18:30:38.062Z,4.70
2019-03-19T18:33:05.714Z,4.60
2019-03-19T18:35:33.343Z,4.40
2019-03-19T18:38:00.966Z,4.40
2019-03-19T18:40:28.606Z,4.20
2019-03-19T18:42:56.239Z,4.30
2019-03-19T18:45:23.883Z,4.40
2019-03-19T18:47:51.510Z,4.40
2019-03-19T18:50:22.575Z,4.40
2019-03-19T18:52:50.205Z,4.30
2019-03-19T18:55:17.919Z,4.20
2019-03-19T18:57:45.617Z,4.30
2019-03-19T19:00:14.326Z,4.40
2019-03-19T19:02:49.568Z,4.40
2019-03-19T19:05:12.209Z,4.20
2019-03-19T19:07:39.834Z,4.20
2019-03-19T19:10:14.943Z,4.00
2019-03-19T19:12:43.548Z,4.00
2019-03-19T19:15:12.720Z,3.80
2019-03-19T19:17:40.351Z,3.80
2019-03-19T19:20:09.262Z,3.80
2019-03-19T19:22:36.886Z,3.90
2019-03-19T19:25:06.199Z,3.80
2019-03-19T19:27:33.826Z,3.80
2019-03-19T19:30:01.471Z,3.80
2019-03-19T19:32:34.156Z,3.70
2019-03-19T19:35:01.794Z,3.70
2019-03-19T19:37:29.438Z,3.70
2019-03-19T19:39:57.087Z,3.50
2019-03-19T19:42:24.710Z,3.50
2019-03-19T19:44:52.356Z,3.50
2019-03-19T19:47:19.982Z,3.40
2019-03-19T19:49:47.626Z,3.30
2019-03-19T19:52:15.257Z,3.40
2019-03-19T19:54:42.992Z,3.30
2019-03-19T19:57:10.626Z,3.30
2019-03-19T19:59:38.258Z,3.20
2019-03-19T20:02:05.898Z,3.20
2019-03-19T20:04:33.531Z,3.20
2019-03-19T20:07:01.177Z,3.20
2019-03-19T20:09:28.810Z,3.10
2019-03-19T20:11:56.451Z,3.00
2019-03-19T20:14:24.078Z,3.10
2019-03-19T20:16:51.720Z,3.00
2019-03-19T20:19:19.350Z,3.00
2019-03-19T20:21:47.001Z,3.00
2019-03-19T20:24:14.627Z,2.80
2019-03-19T20:26:42.270Z,2.80
2019-03-19T20:29:09.898Z,2.90
2019-03-19T20:31:37.540Z,2.90
2019-03-19T20:34:05.163Z,2.80
2019-03-19T20:36:32.809Z,2.80
2019-03-19T20:39:00.427Z,2.80
2019-03-19T20:41:28.071Z,2.70
2019-03-19T20:43:56.643Z,2.80
2019-03-19T20:46:24.278Z,2.70
2019-03-19T20:48:51.922Z,2.60
2019-03-19T20:51:19.540Z,2.50
2019-03-19T20:53:54.878Z,2.40
2019-03-19T20:56:22.533Z,2.40
2019-03-19T20:58:50.162Z,2.40
2019-03-19T21:01:17.786Z,2.30
2019-03-19T21:03:45.426Z,2.30
2019-03-19T21:06:13.056Z,2.30
2019-03-19T21:08:40.700Z,2.30
2019-03-19T21:11:08.322Z,2.20
2019-03-19T21:13:35.964Z,2.20
2019-03-19T21:16:03.587Z,2.20
2019-03-19T21:18:31.232Z,2.30
2019-03-19T21:20:58.911Z,2.20
2019-03-19T21:23:26.565Z,2.20
2019-03-19T21:25:54.186Z,2.10
2019-03-19T21:28:21.831Z,2.20
2019-03-19T21:30:49.456Z,2.10
2019-03-19T21:33:18.108Z,2.10
2019-03-19T21:35:45.735Z,2.10
2019-03-19T21:38:13.379Z,2.10
2019-03-19T21:40:41.010Z,2.10
2019-03-19T21:43:08.650Z,2.10
2019-03-19T21:45:36.271Z,2.10
2019-03-19T21:48:03.986Z,2.00
2019-03-19T21:50:31.622Z,2.00
2019-03-19T21:53:00.170Z,2.00
2019-03-19T21:55:27.817Z,1.90
2019-03-19T21:57:55.438Z,1.90
2019-03-19T22:00:23.545Z,1.90
2019-03-19T22:02:51.184Z,2.00
2019-03-19T22:05:18.835Z,1.90
2019-03-19T22:07:46.455Z,1.80
2019-03-19T22:10:15.640Z,1.80
2019-03-19T22:12:45.256Z,1.80
2019-03-19T22:15:14.432Z,1.70
2019-03-19T22:17:42.058Z,1.50
2019-03-19T22:20:10.067Z,1.40
2019-03-19T22:22:37.718Z,1.50
2019-03-19T22:25:06.427Z,1.40
2019-03-19T22:27:34.092Z,1.40
2019-03-19T22:30:01.773Z,1.30
2019-03-19T22:32:29.399Z,1.20
2019-03-19T22:34:57.091Z,1.00
2019-03-19T22:37:24.727Z,0.80
2019-03-19T22:39:52.366Z,0.70
2019-03-19T22:42:19.995Z,0.70
2019-03-19T22:44:47.634Z,0.70
2019-03-19T22:47:15.263Z,0.80
2019-03-19T22:49:42.906Z,0.80
2019-03-19T22:52:10.530Z,0.80
2019-03-19T22:54:38.170Z,0.80
2019-03-19T22:57:05.804Z,0.70
2019-03-19T22:59:33.451Z,0.70
2019-03-19T23:02:01.094Z,0.60
2019-03-19T23:04:28.722Z,0.50
2019-03-19T23:06:56.386Z,0.50
2019-03-19T23:09:24.067Z,0.50
2019-03-19T23:11:51.705Z,0.50
2019-03-19T23:14:19.347Z,0.50
2019-03-19T23:16:46.974Z,0.40
2019-03-19T23:19:14.619Z,0.40
2019-03-19T23:21:42.246Z,0.40
2019-03-19T23:24:09.878Z,0.30
2019-03-19T23:26:37.514Z,0.30
2019-03-19T23:29:05.147Z,0.20
2019-03-19T23:31:32.788Z,0.20
2019-03-19T23:34:00.414Z,0.10
2019-03-19T23:36:28.058Z,0.00
2019-03-19T23:38:55.690Z,0.00
2019-03-19T23:41:23.335Z,0.10
2019-03-19T23:43:50.965Z,0.00
2019-03-19T23:46:18.607Z,0.00
2019-03-19T23:48:46.238Z,0.00
2019-03-19T23:51:13.879Z,-0.10
2019-03-19T23:53:41.511Z,-0.20
2019-03-19T23:56:09.159Z,-0.20
2019-03-19T23:58:36.782Z,-0.20
